sensor_id;sensor_type;location;lat;lon;timestamp;P1;durP1;ratioP1;P2;durP2;ratioP2
22628;SDS011;11481;53.694;9.910;2023-12-20T00:01:07;15.68;;;1.92;;
22628;SDS011;11481;53.694;9.910;2023-12-20T00:03:33;13.52;;;1.75;;
22628;SDS011;11481;53.694;9.910;2023-12-20T00:06:08;11.68;;;1.25;;
22628;SDS011;11481;53.694;9.910;2023-12-20T00:08:35;13.63;;;1.42;;
22628;SDS011;11481;53.694;9.910;2023-12-20T00:11:02;11.75;;;1.90;;
22628;SDS011;11481;53.694;9.910;2023-12-20T00:13:29;9.27;;;1.42;;
22628;SDS011;11481;53.694;9.910;2023-12-20T00:15:55;8.93;;;1.38;;
22628;SDS011;11481;53.694;9.910;2023-12-20T00:18:23;10.35;;;1.40;;
22628;SDS011;11481;53.694;9.910;2023-12-20T00:20:49;8.32;;;1.30;;
22628;SDS011;11481;53.694;9.910;2023-12-20T00:23:16;10.40;;;1.60;;
22628;SDS011;11481;53.694;9.910;2023-12-20T00:25:43;11.50;;;1.50;;
22628;SDS011;11481;53.694;9.910;2023-12-20T00:28:09;9.52;;;1.30;;
22628;SDS011;11481;53.694;9.910;2023-12-20T00:30:36;18.35;;;1.88;;
22628;SDS011;11481;53.694;9.910;2023-12-20T00:33:03;8.48;;;1.05;;
22628;SDS011;11481;53.694;9.910;2023-12-20T00:35:30;9.75;;;1.77;;
22628;SDS011;11481;53.694;9.910;2023-12-20T00:37:58;11.23;;;1.38;;
22628;SDS011;11481;53.694;9.910;2023-12-20T00:40:25;8.63;;;1.52;;
22628;SDS011;11481;53.694;9.910;2023-12-20T00:42:52;14.05;;;1.17;;
22628;SDS011;11481;53.694;9.910;2023-12-20T00:45:19;11.98;;;1.60;;
22628;SDS011;11481;53.694;9.910;2023-12-20T00:47:45;10.70;;;1.55;;
22628;SDS011;11481;53.694;9.910;2023-12-20T00:50:13;12.98;;;1.73;;
22628;SDS011;11481;53.694;9.910;2023-12-20T00:52:40;14.65;;;1.85;;
22628;SDS011;11481;53.694;9.910;2023-12-20T00:55:06;9.05;;;1.30;;
22628;SDS011;11481;53.694;9.910;2023-12-20T00:57:34;10.80;;;1.52;;
22628;SDS011;11481;53.694;9.910;2023-12-20T01:00:01;16.40;;;1.65;;
22628;SDS011;11481;53.694;9.910;2023-12-20T01:02:28;7.85;;;1.20;;
22628;SDS011;11481;53.694;9.910;2023-12-20T01:04:55;8.18;;;1.13;;
22628;SDS011;11481;53.694;9.910;2023-12-20T01:07:22;8.48;;;1.50;;
22628;SDS011;11481;53.694;9.910;2023-12-20T01:09:49;11.35;;;1.92;;
22628;SDS011;11481;53.694;9.910;2023-12-20T01:12:15;13.88;;;1.60;;
22628;SDS011;11481;53.694;9.910;2023-12-20T01:14:42;14.25;;;1.73;;
22628;SDS011;11481;53.694;9.910;2023-12-20T01:17:09;9.18;;;1.48;;
22628;SDS011;11481;53.694;9.910;2023-12-20T01:19:35;11.43;;;1.48;;
22628;SDS011;11481;53.694;9.910;2023-12-20T01:22:03;14.70;;;1.38;;
22628;SDS011;11481;53.694;9.910;2023-12-20T01:24:30;7.70;;;1.40;;
22628;SDS011;11481;53.694;9.910;2023-12-20T01:26:57;12.05;;;1.52;;
22628;SDS011;11481;53.694;9.910;2023-12-20T01:29:24;6.25;;;1.38;;
22628;SDS011;11481;53.694;9.910;2023-12-20T01:31:50;17.63;;;1.55;;
22628;SDS011;11481;53.694;9.910;2023-12-20T01:34:17;16.67;;;1.98;;
22628;SDS011;11481;53.694;9.910;2023-12-20T01:36:44;15.75;;;2.25;;
22628;SDS011;11481;53.694;9.910;2023-12-20T01:39:11;14.80;;;1.60;;
22628;SDS011;11481;53.694;9.910;2023-12-20T01:41:52;11.23;;;1.35;;
22628;SDS011;11481;53.694;9.910;2023-12-20T01:44:19;8.82;;;1.13;;
22628;SDS011;11481;53.694;9.910;2023-12-20T01:46:46;15.77;;;1.58;;
22628;SDS011;11481;53.694;9.910;2023-12-20T01:49:14;13.32;;;1.30;;
22628;SDS011;11481;53.694;9.910;2023-12-20T01:51:41;8.70;;;1.10;;
22628;SDS011;11481;53.694;9.910;2023-12-20T01:54:09;13.45;;;1.98;;
22628;SDS011;11481;53.694;9.910;2023-12-20T01:56:36;12.70;;;1.23;;
22628;SDS011;11481;53.694;9.910;2023-12-20T01:59:03;10.77;;;1.23;;
22628;SDS011;11481;53.694;9.910;2023-12-20T02:01:30;10.02;;;1.52;;
22628;SDS011;11481;53.694;9.910;2023-12-20T02:03:58;5.18;;;1.10;;
22628;SDS011;11481;53.694;9.910;2023-12-20T02:06:27;7.60;;;1.60;;
22628;SDS011;11481;53.694;9.910;2023-12-20T02:08:57;12.60;;;1.63;;
22628;SDS011;11481;53.694;9.910;2023-12-20T02:11:25;10.65;;;1.60;;
22628;SDS011;11481;53.694;9.910;2023-12-20T02:13:52;7.25;;;1.30;;
22628;SDS011;11481;53.694;9.910;2023-12-20T02:16:19;16.40;;;1.73;;
22628;SDS011;11481;53.694;9.910;2023-12-20T02:18:47;7.32;;;1.42;;
22628;SDS011;11481;53.694;9.910;2023-12-20T02:21:14;7.90;;;1.55;;
22628;SDS011;11481;53.694;9.910;2023-12-20T02:23:41;10.95;;;1.90;;
22628;SDS011;11481;53.694;9.910;2023-12-20T02:26:08;7.82;;;1.38;;
22628;SDS011;11481;53.694;9.910;2023-12-20T02:28:34;11.88;;;1.23;;
22628;SDS011;11481;53.694;9.910;2023-12-20T02:31:02;7.22;;;1.42;;
22628;SDS011;11481;53.694;9.910;2023-12-20T02:33:29;11.40;;;1.65;;
22628;SDS011;11481;53.694;9.910;2023-12-20T02:35:56;4.18;;;1.00;;
22628;SDS011;11481;53.694;9.910;2023-12-20T02:38:22;12.85;;;1.20;;
22628;SDS011;11481;53.694;9.910;2023-12-20T02:40:49;10.20;;;1.13;;
22628;SDS011;11481;53.694;9.910;2023-12-20T02:43:16;11.52;;;1.80;;
22628;SDS011;11481;53.694;9.910;2023-12-20T02:45:43;13.10;;;1.48;;
22628;SDS011;11481;53.694;9.910;2023-12-20T02:48:10;8.52;;;1.27;;
22628;SDS011;11481;53.694;9.910;2023-12-20T02:50:36;7.03;;;1.15;;
22628;SDS011;11481;53.694;9.910;2023-12-20T02:53:03;8.50;;;1.55;;
22628;SDS011;11481;53.694;9.910;2023-12-20T02:55:30;9.52;;;1.00;;
22628;SDS011;11481;53.694;9.910;2023-12-20T02:57:56;7.85;;;1.40;;
22628;SDS011;11481;53.694;9.910;2023-12-20T03:00:24;11.95;;;2.10;;
22628;SDS011;11481;53.694;9.910;2023-12-20T03:02:50;8.48;;;1.83;;
22628;SDS011;11481;53.694;9.910;2023-12-20T03:05:17;5.88;;;1.70;;
22628;SDS011;11481;53.694;9.910;2023-12-20T03:07:44;12.75;;;2.00;;
22628;SDS011;11481;53.694;9.910;2023-12-20T03:10:12;9.43;;;1.90;;
22628;SDS011;11481;53.694;9.910;2023-12-20T03:12:49;8.63;;;2.03;;
22628;SDS011;11481;53.694;9.910;2023-12-20T03:15:16;12.68;;;1.90;;
22628;SDS011;11481;53.694;9.910;2023-12-20T03:17:42;10.45;;;1.67;;
22628;SDS011;11481;53.694;9.910;2023-12-20T03:20:10;11.13;;;1.70;;
22628;SDS011;11481;53.694;9.910;2023-12-20T03:22:37;6.05;;;1.40;;
22628;SDS011;11481;53.694;9.910;2023-12-20T03:25:04;8.40;;;1.73;;
22628;SDS011;11481;53.694;9.910;2023-12-20T03:27:31;8.80;;;1.63;;
22628;SDS011;11481;53.694;9.910;2023-12-20T03:29:58;10.07;;;2.60;;
22628;SDS011;11481;53.694;9.910;2023-12-20T03:32:24;9.77;;;1.67;;
22628;SDS011;11481;53.694;9.910;2023-12-20T03:34:51;3.60;;;1.40;;
22628;SDS011;11481;53.694;9.910;2023-12-20T03:37:18;13.45;;;1.65;;
22628;SDS011;11481;53.694;9.910;2023-12-20T03:39:45;10.00;;;1.95;;
22628;SDS011;11481;53.694;9.910;2023-12-20T03:42:12;7.57;;;1.33;;
22628;SDS011;11481;53.694;9.910;2023-12-20T03:44:39;6.57;;;1.33;;
22628;SDS011;11481;53.694;9.910;2023-12-20T03:47:06;8.55;;;1.42;;
22628;SDS011;11481;53.694;9.910;2023-12-20T03:49:33;11.60;;;1.83;;
22628;SDS011;11481;53.694;9.910;2023-12-20T03:52:03;6.22;;;0.98;;
22628;SDS011;11481;53.694;9.910;2023-12-20T03:54:30;7.53;;;1.50;;
22628;SDS011;11481;53.694;9.910;2023-12-20T03:56:57;10.68;;;1.65;;
22628;SDS011;11481;53.694;9.910;2023-12-20T03:59:24;10.32;;;1.73;;
22628;SDS011;11481;53.694;9.910;2023-12-20T04:01:51;7.43;;;1.10;;
22628;SDS011;11481;53.694;9.910;2023-12-20T04:04:17;10.02;;;1.40;;
22628;SDS011;11481;53.694;9.910;2023-12-20T04:06:45;7.38;;;1.30;;
22628;SDS011;11481;53.694;9.910;2023-12-20T04:09:12;7.03;;;1.10;;
22628;SDS011;11481;53.694;9.910;2023-12-20T04:11:38;9.18;;;1.30;;
22628;SDS011;11481;53.694;9.910;2023-12-20T04:14:05;11.48;;;1.20;;
22628;SDS011;11481;53.694;9.910;2023-12-20T04:16:34;7.40;;;1.42;;
22628;SDS011;11481;53.694;9.910;2023-12-20T04:19:01;7.13;;;1.17;;
22628;SDS011;11481;53.694;9.910;2023-12-20T04:21:29;9.30;;;1.35;;
22628;SDS011;11481;53.694;9.910;2023-12-20T04:23:55;14.48;;;1.75;;
22628;SDS011;11481;53.694;9.910;2023-12-20T04:26:22;7.57;;;1.52;;
22628;SDS011;11481;53.694;9.910;2023-12-20T04:28:49;8.57;;;1.45;;
22628;SDS011;11481;53.694;9.910;2023-12-20T04:31:20;11.55;;;1.70;;
22628;SDS011;11481;53.694;9.910;2023-12-20T04:33:47;9.35;;;2.00;;
22628;SDS011;11481;53.694;9.910;2023-12-20T04:36:13;9.02;;;1.50;;
22628;SDS011;11481;53.694;9.910;2023-12-20T04:38:40;11.02;;;1.48;;
22628;SDS011;11481;53.694;9.910;2023-12-20T04:41:07;18.00;;;1.40;;
22628;SDS011;11481;53.694;9.910;2023-12-20T04:43:34;12.05;;;1.63;;
22628;SDS011;11481;53.694;9.910;2023-12-20T04:46:00;11.40;;;2.17;;
22628;SDS011;11481;53.694;9.910;2023-12-20T04:48:27;15.35;;;1.88;;
22628;SDS011;11481;53.694;9.910;2023-12-20T04:50:54;12.20;;;1.70;;
22628;SDS011;11481;53.694;9.910;2023-12-20T04:53:21;10.10;;;1.77;;
22628;SDS011;11481;53.694;9.910;2023-12-20T04:55:47;7.07;;;1.30;;
22628;SDS011;11481;53.694;9.910;2023-12-20T04:58:14;10.50;;;1.92;;
22628;SDS011;11481;53.694;9.910;2023-12-20T05:00:41;5.50;;;1.13;;
22628;SDS011;11481;53.694;9.910;2023-12-20T05:03:08;12.65;;;1.50;;
22628;SDS011;11481;53.694;9.910;2023-12-20T05:05:35;7.18;;;1.67;;
22628;SDS011;11481;53.694;9.910;2023-12-20T05:08:02;14.55;;;1.65;;
22628;SDS011;11481;53.694;9.910;2023-12-20T05:10:30;15.10;;;1.77;;
22628;SDS011;11481;53.694;9.910;2023-12-20T05:12:57;9.60;;;1.40;;
22628;SDS011;11481;53.694;9.910;2023-12-20T05:15:24;8.65;;;1.85;;
22628;SDS011;11481;53.694;9.910;2023-12-20T05:17:50;14.23;;;2.03;;
22628;SDS011;11481;53.694;9.910;2023-12-20T05:20:17;9.50;;;1.92;;
22628;SDS011;11481;53.694;9.910;2023-12-20T05:22:44;13.88;;;2.00;;
22628;SDS011;11481;53.694;9.910;2023-12-20T05:25:11;10.57;;;1.83;;
22628;SDS011;11481;53.694;9.910;2023-12-20T05:27:38;9.25;;;1.88;;
22628;SDS011;11481;53.694;9.910;2023-12-20T05:30:05;9.07;;;2.00;;
22628;SDS011;11481;53.694;9.910;2023-12-20T05:32:32;9.48;;;1.75;;
22628;SDS011;11481;53.694;9.910;2023-12-20T05:34:59;13.50;;;2.50;;
22628;SDS011;11481;53.694;9.910;2023-12-20T05:37:26;9.20;;;1.70;;
22628;SDS011;11481;53.694;9.910;2023-12-20T05:39:53;14.13;;;2.00;;
22628;SDS011;11481;53.694;9.910;2023-12-20T05:42:19;8.80;;;1.70;;
22628;SDS011;11481;53.694;9.910;2023-12-20T05:44:46;7.88;;;1.42;;
22628;SDS011;11481;53.694;9.910;2023-12-20T05:47:16;5.80;;;1.60;;
22628;SDS011;11481;53.694;9.910;2023-12-20T05:49:43;12.10;;;1.80;;
22628;SDS011;11481;53.694;9.910;2023-12-20T05:52:11;12.32;;;1.80;;
22628;SDS011;11481;53.694;9.910;2023-12-20T05:54:38;14.80;;;2.47;;
22628;SDS011;11481;53.694;9.910;2023-12-20T05:57:04;10.10;;;2.17;;
22628;SDS011;11481;53.694;9.910;2023-12-20T05:59:31;10.00;;;2.00;;
22628;SDS011;11481;53.694;9.910;2023-12-20T06:01:58;8.75;;;1.40;;
22628;SDS011;11481;53.694;9.910;2023-12-20T06:04:24;14.80;;;2.25;;
22628;SDS011;11481;53.694;9.910;2023-12-20T06:06:51;10.52;;;1.90;;
22628;SDS011;11481;53.694;9.910;2023-12-20T06:09:18;9.27;;;1.95;;
22628;SDS011;11481;53.694;9.910;2023-12-20T06:11:45;15.35;;;1.85;;
22628;SDS011;11481;53.694;9.910;2023-12-20T06:14:12;5.72;;;1.33;;
22628;SDS011;11481;53.694;9.910;2023-12-20T06:16:39;13.95;;;1.80;;
22628;SDS011;11481;53.694;9.910;2023-12-20T06:19:05;12.48;;;1.73;;
22628;SDS011;11481;53.694;9.910;2023-12-20T06:21:32;13.25;;;2.35;;
22628;SDS011;11481;53.694;9.910;2023-12-20T06:23:59;10.13;;;2.10;;
22628;SDS011;11481;53.694;9.910;2023-12-20T06:26:26;11.50;;;1.92;;
22628;SDS011;11481;53.694;9.910;2023-12-20T06:28:53;20.52;;;3.00;;
22628;SDS011;11481;53.694;9.910;2023-12-20T06:31:19;12.43;;;1.92;;
22628;SDS011;11481;53.694;9.910;2023-12-20T06:33:46;8.73;;;1.83;;
22628;SDS011;11481;53.694;9.910;2023-12-20T06:36:13;6.22;;;1.80;;
22628;SDS011;11481;53.694;9.910;2023-12-20T06:38:40;16.75;;;2.33;;
22628;SDS011;11481;53.694;9.910;2023-12-20T06:41:08;20.70;;;2.65;;
22628;SDS011;11481;53.694;9.910;2023-12-20T06:43:37;9.93;;;2.15;;
22628;SDS011;11481;53.694;9.910;2023-12-20T06:46:15;11.15;;;1.70;;
22628;SDS011;11481;53.694;9.910;2023-12-20T06:48:42;11.60;;;2.42;;
22628;SDS011;11481;53.694;9.910;2023-12-20T06:51:14;11.13;;;1.73;;
22628;SDS011;11481;53.694;9.910;2023-12-20T06:53:41;12.45;;;2.47;;
22628;SDS011;11481;53.694;9.910;2023-12-20T06:56:09;11.52;;;2.13;;
22628;SDS011;11481;53.694;9.910;2023-12-20T06:58:41;13.32;;;2.40;;
22628;SDS011;11481;53.694;9.910;2023-12-20T07:01:11;9.52;;;1.60;;
22628;SDS011;11481;53.694;9.910;2023-12-20T07:03:39;18.25;;;2.63;;
22628;SDS011;11481;53.694;9.910;2023-12-20T07:06:06;12.63;;;1.80;;
22628;SDS011;11481;53.694;9.910;2023-12-20T07:08:33;10.30;;;1.92;;
22628;SDS011;11481;53.694;9.910;2023-12-20T07:11:00;7.28;;;1.85;;
22628;SDS011;11481;53.694;9.910;2023-12-20T07:13:27;17.77;;;2.17;;
22628;SDS011;11481;53.694;9.910;2023-12-20T07:15:54;16.27;;;2.15;;
22628;SDS011;11481;53.694;9.910;2023-12-20T07:18:20;13.32;;;2.05;;
22628;SDS011;11481;53.694;9.910;2023-12-20T07:20:47;11.23;;;1.90;;
22628;SDS011;11481;53.694;9.910;2023-12-20T07:23:14;13.73;;;2.30;;
22628;SDS011;11481;53.694;9.910;2023-12-20T07:25:41;15.57;;;2.03;;
22628;SDS011;11481;53.694;9.910;2023-12-20T07:28:07;16.83;;;2.75;;
22628;SDS011;11481;53.694;9.910;2023-12-20T07:30:34;14.18;;;2.53;;
22628;SDS011;11481;53.694;9.910;2023-12-20T07:33:01;12.23;;;2.28;;
22628;SDS011;11481;53.694;9.910;2023-12-20T07:35:28;15.65;;;2.75;;
22628;SDS011;11481;53.694;9.910;2023-12-20T07:37:55;16.90;;;2.70;;
22628;SDS011;11481;53.694;9.910;2023-12-20T07:40:22;11.93;;;2.88;;
22628;SDS011;11481;53.694;9.910;2023-12-20T07:42:50;18.50;;;2.70;;
22628;SDS011;11481;53.694;9.910;2023-12-20T07:45:16;18.77;;;2.88;;
22628;SDS011;11481;53.694;9.910;2023-12-20T07:47:43;18.10;;;3.17;;
22628;SDS011;11481;53.694;9.910;2023-12-20T07:50:10;14.38;;;2.75;;
22628;SDS011;11481;53.694;9.910;2023-12-20T07:52:37;20.23;;;4.40;;
22628;SDS011;11481;53.694;9.910;2023-12-20T07:55:04;13.48;;;2.85;;
22628;SDS011;11481;53.694;9.910;2023-12-20T07:57:31;15.50;;;3.42;;
22628;SDS011;11481;53.694;9.910;2023-12-20T07:59:58;14.88;;;3.15;;
22628;SDS011;11481;53.694;9.910;2023-12-20T08:02:25;12.13;;;2.10;;
22628;SDS011;11481;53.694;9.910;2023-12-20T08:04:52;18.77;;;4.15;;
22628;SDS011;11481;53.694;9.910;2023-12-20T08:07:18;7.53;;;3.00;;
22628;SDS011;11481;53.694;9.910;2023-12-20T08:09:45;14.77;;;2.40;;
22628;SDS011;11481;53.694;9.910;2023-12-20T08:12:12;21.08;;;2.25;;
22628;SDS011;11481;53.694;9.910;2023-12-20T08:14:39;10.00;;;2.50;;
22628;SDS011;11481;53.694;9.910;2023-12-20T08:17:05;12.93;;;2.13;;
22628;SDS011;11481;53.694;9.910;2023-12-20T08:19:32;16.05;;;2.15;;
22628;SDS011;11481;53.694;9.910;2023-12-20T08:21:59;9.45;;;1.85;;
22628;SDS011;11481;53.694;9.910;2023-12-20T08:24:26;9.50;;;2.10;;
22628;SDS011;11481;53.694;9.910;2023-12-20T08:26:52;10.75;;;1.98;;
22628;SDS011;11481;53.694;9.910;2023-12-20T08:29:19;14.10;;;2.05;;
22628;SDS011;11481;53.694;9.910;2023-12-20T08:31:51;10.55;;;2.00;;
22628;SDS011;11481;53.694;9.910;2023-12-20T08:34:18;16.63;;;2.70;;
22628;SDS011;11481;53.694;9.910;2023-12-20T08:36:45;17.60;;;2.25;;
22628;SDS011;11481;53.694;9.910;2023-12-20T08:39:12;10.77;;;2.00;;
22628;SDS011;11481;53.694;9.910;2023-12-20T08:41:39;15.63;;;2.30;;
22628;SDS011;11481;53.694;9.910;2023-12-20T08:44:06;9.63;;;2.28;;
22628;SDS011;11481;53.694;9.910;2023-12-20T08:46:32;11.75;;;2.47;;
22628;SDS011;11481;53.694;9.910;2023-12-20T08:48:59;13.43;;;3.13;;
22628;SDS011;11481;53.694;9.910;2023-12-20T08:51:27;14.00;;;2.35;;
22628;SDS011;11481;53.694;9.910;2023-12-20T08:53:53;19.30;;;2.38;;
22628;SDS011;11481;53.694;9.910;2023-12-20T08:56:20;15.32;;;2.35;;
22628;SDS011;11481;53.694;9.910;2023-12-20T08:58:47;8.15;;;1.95;;
22628;SDS011;11481;53.694;9.910;2023-12-20T09:01:14;11.60;;;2.20;;
22628;SDS011;11481;53.694;9.910;2023-12-20T09:03:41;11.13;;;1.88;;
22628;SDS011;11481;53.694;9.910;2023-12-20T09:06:09;13.25;;;2.22;;
22628;SDS011;11481;53.694;9.910;2023-12-20T09:08:36;13.10;;;1.60;;
22628;SDS011;11481;53.694;9.910;2023-12-20T09:11:03;14.68;;;2.88;;
22628;SDS011;11481;53.694;9.910;2023-12-20T09:13:30;9.05;;;1.92;;
22628;SDS011;11481;53.694;9.910;2023-12-20T09:15:58;6.97;;;0.98;;
22628;SDS011;11481;53.694;9.910;2023-12-20T09:18:25;6.80;;;0.90;;
22628;SDS011;11481;53.694;9.910;2023-12-20T09:20:52;3.50;;;0.60;;
22628;SDS011;11481;53.694;9.910;2023-12-20T09:23:19;3.05;;;0.75;;
22628;SDS011;11481;53.694;9.910;2023-12-20T09:25:45;2.97;;;0.60;;
22628;SDS011;11481;53.694;9.910;2023-12-20T09:28:12;5.18;;;0.50;;
22628;SDS011;11481;53.694;9.910;2023-12-20T09:30:39;6.90;;;0.57;;
22628;SDS011;11481;53.694;9.910;2023-12-20T09:33:06;2.42;;;0.52;;
22628;SDS011;11481;53.694;9.910;2023-12-20T09:35:34;2.28;;;0.43;;
22628;SDS011;11481;53.694;9.910;2023-12-20T09:38:01;3.47;;;0.63;;
22628;SDS011;11481;53.694;9.910;2023-12-20T09:40:28;2.17;;;0.20;;
22628;SDS011;11481;53.694;9.910;2023-12-20T09:43:00;0.73;;;0.20;;
22628;SDS011;11481;53.694;9.910;2023-12-20T09:45:30;1.25;;;0.22;;
22628;SDS011;11481;53.694;9.910;2023-12-20T09:47:58;1.00;;;0.32;;
22628;SDS011;11481;53.694;9.910;2023-12-20T09:50:26;1.08;;;0.30;;
22628;SDS011;11481;53.694;9.910;2023-12-20T09:52:53;2.65;;;0.35;;
22628;SDS011;11481;53.694;9.910;2023-12-20T09:55:24;0.30;;;0.15;;
22628;SDS011;11481;53.694;9.910;2023-12-20T09:57:52;1.55;;;0.30;;
22628;SDS011;11481;53.694;9.910;2023-12-20T10:00:19;1.13;;;0.40;;
22628;SDS011;11481;53.694;9.910;2023-12-20T10:07:58;1.42;;;0.22;;
22628;SDS011;11481;53.694;9.910;2023-12-20T10:10:26;0.95;;;0.25;;
22628;SDS011;11481;53.694;9.910;2023-12-20T10:13:08;1.05;;;0.30;;
22628;SDS011;11481;53.694;9.910;2023-12-20T10:15:37;5.65;;;0.70;;
22628;SDS011;11481;53.694;9.910;2023-12-20T10:18:04;2.25;;;0.30;;
22628;SDS011;11481;53.694;9.910;2023-12-20T10:20:31;3.75;;;0.47;;
22628;SDS011;11481;53.694;9.910;2023-12-20T10:22:59;9.98;;;0.70;;
22628;SDS011;11481;53.694;9.910;2023-12-20T10:25:27;6.80;;;0.80;;
22628;SDS011;11481;53.694;9.910;2023-12-20T10:28:13;2.00;;;0.40;;
22628;SDS011;11481;53.694;9.910;2023-12-20T10:30:49;6.00;;;0.80;;
22628;SDS011;11481;53.694;9.910;2023-12-20T10:33:23;5.60;;;0.63;;
22628;SDS011;11481;53.694;9.910;2023-12-20T10:35:51;7.82;;;0.65;;
22628;SDS011;11481;53.694;9.910;2023-12-20T10:38:19;3.50;;;0.50;;
22628;SDS011;11481;53.694;9.910;2023-12-20T10:40:45;3.80;;;0.82;;
22628;SDS011;11481;53.694;9.910;2023-12-20T10:43:12;5.82;;;0.63;;
22628;SDS011;11481;53.694;9.910;2023-12-20T10:45:41;3.10;;;0.50;;
22628;SDS011;11481;53.694;9.910;2023-12-20T10:48:10;5.10;;;1.08;;
22628;SDS011;11481;53.694;9.910;2023-12-20T10:50:38;5.80;;;0.77;;
22628;SDS011;11481;53.694;9.910;2023-12-20T10:53:07;6.10;;;0.68;;
22628;SDS011;11481;53.694;9.910;2023-12-20T10:55:33;7.32;;;0.90;;
22628;SDS011;11481;53.694;9.910;2023-12-20T10:58:01;3.15;;;0.93;;
22628;SDS011;11481;53.694;9.910;2023-12-20T11:00:40;3.70;;;0.80;;
22628;SDS011;11481;53.694;9.910;2023-12-20T11:03:10;3.80;;;0.65;;
22628;SDS011;11481;53.694;9.910;2023-12-20T11:06:14;4.70;;;0.55;;
22628;SDS011;11481;53.694;9.910;2023-12-20T11:08:58;4.43;;;0.70;;
22628;SDS011;11481;53.694;9.910;2023-12-20T11:11:41;6.28;;;0.93;;
22628;SDS011;11481;53.694;9.910;2023-12-20T11:14:29;6.35;;;0.88;;
22628;SDS011;11481;53.694;9.910;2023-12-20T11:19:43;3.67;;;0.77;;
22628;SDS011;11481;53.694;9.910;2023-12-20T11:22:30;8.85;;;1.00;;
22628;SDS011;11481;53.694;9.910;2023-12-20T11:25:08;9.90;;;1.10;;
22628;SDS011;11481;53.694;9.910;2023-12-20T11:27:44;10.85;;;1.42;;
22628;SDS011;11481;53.694;9.910;2023-12-20T11:30:51;6.55;;;1.10;;
22628;SDS011;11481;53.694;9.910;2023-12-20T11:33:22;7.65;;;1.15;;
22628;SDS011;11481;53.694;9.910;2023-12-20T11:35:55;7.13;;;1.02;;
22628;SDS011;11481;53.694;9.910;2023-12-20T11:38:23;8.65;;;1.42;;
22628;SDS011;11481;53.694;9.910;2023-12-20T11:40:51;7.78;;;1.05;;
22628;SDS011;11481;53.694;9.910;2023-12-20T11:43:39;7.70;;;1.13;;
22628;SDS011;11481;53.694;9.910;2023-12-20T11:46:07;6.13;;;1.42;;
22628;SDS011;11481;53.694;9.910;2023-12-20T11:48:37;5.68;;;1.10;;
22628;SDS011;11481;53.694;9.910;2023-12-20T11:51:11;8.82;;;1.35;;
22628;SDS011;11481;53.694;9.910;2023-12-20T11:53:39;12.05;;;1.55;;
22628;SDS011;11481;53.694;9.910;2023-12-20T11:56:08;6.65;;;1.30;;
22628;SDS011;11481;53.694;9.910;2023-12-20T11:58:35;8.55;;;1.00;;
22628;SDS011;11481;53.694;9.910;2023-12-20T12:01:03;6.32;;;1.40;;
22628;SDS011;11481;53.694;9.910;2023-12-20T12:03:31;7.38;;;1.95;;
22628;SDS011;11481;53.694;9.910;2023-12-20T12:05:59;10.48;;;1.63;;
22628;SDS011;11481;53.694;9.910;2023-12-20T12:08:27;11.77;;;1.92;;
22628;SDS011;11481;53.694;9.910;2023-12-20T12:10:53;16.75;;;2.13;;
22628;SDS011;11481;53.694;9.910;2023-12-20T12:13:20;11.60;;;1.67;;
22628;SDS011;11481;53.694;9.910;2023-12-20T12:15:47;14.57;;;1.90;;
22628;SDS011;11481;53.694;9.910;2023-12-20T12:18:17;18.02;;;2.42;;
22628;SDS011;11481;53.694;9.910;2023-12-20T12:20:44;12.00;;;2.03;;
22628;SDS011;11481;53.694;9.910;2023-12-20T12:23:12;19.23;;;2.47;;
22628;SDS011;11481;53.694;9.910;2023-12-20T12:25:38;13.82;;;2.13;;
22628;SDS011;11481;53.694;9.910;2023-12-20T12:28:08;13.43;;;2.38;;
22628;SDS011;11481;53.694;9.910;2023-12-20T12:30:36;12.82;;;2.25;;
22628;SDS011;11481;53.694;9.910;2023-12-20T12:33:11;11.73;;;1.67;;
22628;SDS011;11481;53.694;9.910;2023-12-20T12:35:39;21.17;;;3.20;;
22628;SDS011;11481;53.694;9.910;2023-12-20T12:38:06;13.10;;;2.50;;
22628;SDS011;11481;53.694;9.910;2023-12-20T12:40:34;14.13;;;2.00;;
22628;SDS011;11481;53.694;9.910;2023-12-20T12:43:02;12.85;;;2.22;;
22628;SDS011;11481;53.694;9.910;2023-12-20T12:45:30;11.18;;;2.03;;
22628;SDS011;11481;53.694;9.910;2023-12-20T12:47:57;18.58;;;2.20;;
22628;SDS011;11481;53.694;9.910;2023-12-20T12:50:24;10.60;;;1.88;;
22628;SDS011;11481;53.694;9.910;2023-12-20T12:52:51;18.25;;;2.13;;
22628;SDS011;11481;53.694;9.910;2023-12-20T12:55:18;16.45;;;1.98;;
22628;SDS011;11481;53.694;9.910;2023-12-20T12:57:45;16.05;;;2.40;;
22628;SDS011;11481;53.694;9.910;2023-12-20T13:00:12;13.20;;;2.03;;
22628;SDS011;11481;53.694;9.910;2023-12-20T13:02:39;14.60;;;2.50;;
22628;SDS011;11481;53.694;9.910;2023-12-20T13:05:09;12.43;;;1.88;;
22628;SDS011;11481;53.694;9.910;2023-12-20T13:07:36;15.07;;;1.92;;
22628;SDS011;11481;53.694;9.910;2023-12-20T13:10:04;19.92;;;2.45;;
22628;SDS011;11481;53.694;9.910;2023-12-20T13:12:32;15.82;;;2.25;;
22628;SDS011;11481;53.694;9.910;2023-12-20T13:14:58;9.10;;;1.77;;
22628;SDS011;11481;53.694;9.910;2023-12-20T13:17:25;14.43;;;2.42;;
22628;SDS011;11481;53.694;9.910;2023-12-20T13:19:55;12.10;;;2.25;;
22628;SDS011;11481;53.694;9.910;2023-12-20T13:22:22;24.75;;;2.85;;
22628;SDS011;11481;53.694;9.910;2023-12-20T13:24:49;10.63;;;1.98;;
22628;SDS011;11481;53.694;9.910;2023-12-20T13:27:15;12.73;;;2.80;;
22628;SDS011;11481;53.694;9.910;2023-12-20T13:29:42;13.10;;;2.60;;
22628;SDS011;11481;53.694;9.910;2023-12-20T13:32:09;17.45;;;2.70;;
22628;SDS011;11481;53.694;9.910;2023-12-20T13:34:36;10.68;;;2.20;;
22628;SDS011;11481;53.694;9.910;2023-12-20T13:37:03;10.23;;;2.25;;
22628;SDS011;11481;53.694;9.910;2023-12-20T13:39:30;10.82;;;2.42;;
22628;SDS011;11481;53.694;9.910;2023-12-20T13:41:58;10.02;;;2.20;;
22628;SDS011;11481;53.694;9.910;2023-12-20T13:44:26;13.48;;;2.33;;
22628;SDS011;11481;53.694;9.910;2023-12-20T13:46:53;18.95;;;2.92;;
22628;SDS011;11481;53.694;9.910;2023-12-20T13:49:20;12.93;;;3.15;;
22628;SDS011;11481;53.694;9.910;2023-12-20T13:51:47;19.95;;;3.92;;
22628;SDS011;11481;53.694;9.910;2023-12-20T13:54:14;14.07;;;2.67;;
22628;SDS011;11481;53.694;9.910;2023-12-20T13:56:43;16.42;;;3.08;;
22628;SDS011;11481;53.694;9.910;2023-12-20T13:59:27;15.15;;;2.90;;
22628;SDS011;11481;53.694;9.910;2023-12-20T14:01:54;10.32;;;2.60;;
22628;SDS011;11481;53.694;9.910;2023-12-20T14:04:23;12.45;;;2.53;;
22628;SDS011;11481;53.694;9.910;2023-12-20T14:07:08;13.40;;;2.90;;
22628;SDS011;11481;53.694;9.910;2023-12-20T14:09:37;9.68;;;2.70;;
22628;SDS011;11481;53.694;9.910;2023-12-20T14:12:04;10.63;;;2.65;;
22628;SDS011;11481;53.694;9.910;2023-12-20T14:14:31;10.60;;;2.35;;
22628;SDS011;11481;53.694;9.910;2023-12-20T14:16:58;12.38;;;3.08;;
22628;SDS011;11481;53.694;9.910;2023-12-20T14:19:24;8.82;;;2.40;;
22628;SDS011;11481;53.694;9.910;2023-12-20T14:21:51;13.48;;;3.15;;
22628;SDS011;11481;53.694;9.910;2023-12-20T14:24:18;8.85;;;2.53;;
22628;SDS011;11481;53.694;9.910;2023-12-20T14:26:45;11.02;;;2.88;;
22628;SDS011;11481;53.694;9.910;2023-12-20T14:29:11;10.98;;;2.38;;
22628;SDS011;11481;53.694;9.910;2023-12-20T14:31:38;10.70;;;2.53;;
22628;SDS011;11481;53.694;9.910;2023-12-20T14:34:06;15.27;;;2.55;;
22628;SDS011;11481;53.694;9.910;2023-12-20T14:36:34;10.75;;;2.90;;
22628;SDS011;11481;53.694;9.910;2023-12-20T14:39:01;11.45;;;2.88;;
22628;SDS011;11481;53.694;9.910;2023-12-20T14:41:29;16.42;;;3.13;;
22628;SDS011;11481;53.694;9.910;2023-12-20T14:43:59;19.13;;;3.25;;
22628;SDS011;11481;53.694;9.910;2023-12-20T14:46:31;13.80;;;2.92;;
22628;SDS011;11481;53.694;9.910;2023-12-20T14:48:57;16.88;;;3.45;;
22628;SDS011;11481;53.694;9.910;2023-12-20T14:51:24;12.30;;;2.75;;
22628;SDS011;11481;53.694;9.910;2023-12-20T14:53:51;12.30;;;2.88;;